createdAt,value
2017-09-27T00:00:19.148Z,1025.83
2017-09-27T00:01:27.980Z,1025.87
2017-09-27T00:02:36.811Z,1025.84
2017-09-27T00:03:45.643Z,1025.86
2017-09-27T00:04:54.477Z,1025.89
2017-09-27T00:06:03.461Z,1025.89
2017-09-27T00:07:12.296Z,1025.9
2017-09-27T00:08:21.129Z,1025.92
2017-09-27T00:09:29.961Z,1025.92
2017-09-27T00:10:38.794Z,1025.98
2017-09-27T00:11:48.259Z,1025.93
2017-09-27T00:12:57.092Z,1025.96
2017-09-27T00:14:05.924Z,1025.96
2017-09-27T00:15:14.759Z,1025.94
2017-09-27T00:16:23.591Z,1025.91
2017-09-27T00:17:32.474Z,1025.97
2017-09-27T00:18:41.305Z,1025.95
2017-09-27T00:19:50.138Z,1025.93
2017-09-27T00:20:58.972Z,1025.91
2017-09-27T00:22:07.807Z,1025.97
2017-09-27T00:23:16.793Z,1025.95
2017-09-27T00:24:25.626Z,1025.95
2017-09-27T00:25:34.461Z,1025.97
2017-09-27T00:26:43.501Z,1025.92
2017-09-27T00:27:52.334Z,1025.94
2017-09-27T00:29:01.315Z,1025.85
2017-09-27T00:30:10.147Z,1025.89
2017-09-27T00:31:18.982Z,1025.9
2017-09-27T00:32:27.817Z,1025.9
2017-09-27T00:33:36.648Z,1025.86
2017-09-27T00:34:45.533Z,1025.81
2017-09-27T00:35:54.369Z,1025.84
2017-09-27T00:37:03.198Z,1025.81
2017-09-27T00:38:12.034Z,1025.75
2017-09-27T00:39:21.199Z,1025.78
2017-09-27T00:40:30.241Z,1025.78
2017-09-27T00:41:39.067Z,1025.75
2017-09-27T00:42:48.228Z,1025.81
2017-09-27T00:43:57.061Z,1025.84
2017-09-27T00:45:05.894Z,1025.89
2017-09-27T00:46:14.926Z,1025.92
2017-09-27T00:47:23.761Z,1025.91
2017-09-27T00:48:32.594Z,1025.86
2017-09-27T00:49:41.431Z,1025.86
2017-09-27T00:50:50.258Z,1025.83
2017-09-27T00:51:59.094Z,1025.82
2017-09-27T00:53:07.926Z,1025.88
2017-09-27T00:54:16.760Z,1025.83
2017-09-27T00:55:25.593Z,1025.88
2017-09-27T00:56:34.426Z,1025.82
2017-09-27T00:57:43.311Z,1025.84
2017-09-27T00:58:52.145Z,1025.87
2017-09-27T01:00:00.975Z,1025.83
2017-09-27T01:01:09.809Z,1025.8
2017-09-27T01:02:18.974Z,1025.77
2017-09-27T01:03:27.858Z,1025.76
2017-09-27T01:04:36.690Z,1025.69
2017-09-27T01:05:45.860Z,1025.74
2017-09-27T01:06:54.691Z,1025.69
2017-09-27T01:08:03.525Z,1025.69
2017-09-27T01:09:12.660Z,1025.66
2017-09-27T01:10:21.493Z,1025.59
2017-09-27T01:11:30.327Z,1025.63
2017-09-27T01:12:39.162Z,1025.63
2017-09-27T01:13:47.996Z,1025.64
2017-09-27T01:14:56.882Z,1025.67
2017-09-27T01:16:06.056Z,1025.65
2017-09-27T01:17:14.889Z,1025.66
2017-09-27T01:18:23.723Z,1025.62
2017-09-27T01:19:32.563Z,1025.63
2017-09-27T01:20:41.594Z,1025.6
2017-09-27T01:21:50.428Z,1025.64
2017-09-27T01:22:59.261Z,1025.66
2017-09-27T01:24:08.095Z,1025.64
2017-09-27T01:25:16.926Z,1025.65
2017-09-27T01:26:25.759Z,1025.64
2017-09-27T01:27:34.591Z,1025.65
2017-09-27T01:28:43.423Z,1025.67
2017-09-27T01:29:52.590Z,1025.6
2017-09-27T01:31:01.423Z,1025.63
2017-09-27T01:32:10.406Z,1025.65
2017-09-27T01:33:19.238Z,1025.65
2017-09-27T01:34:28.073Z,1025.68
2017-09-27T01:35:36.908Z,1025.67
2017-09-27T01:36:45.739Z,1025.68
2017-09-27T01:37:54.569Z,1025.72
2017-09-27T01:39:03.404Z,1025.73
2017-09-27T01:40:12.238Z,1025.76
2017-09-27T01:41:21.071Z,1025.72
2017-09-27T01:42:29.905Z,1025.73
2017-09-27T01:43:38.790Z,1025.72
2017-09-27T01:44:47.626Z,1025.7
2017-09-27T01:45:56.459Z,1025.7
2017-09-27T01:47:05.290Z,1025.7
2017-09-27T01:48:14.123Z,1025.7
2017-09-27T01:49:22.955Z,1025.69
2017-09-27T01:50:31.819Z,1025.69
2017-09-27T01:51:40.621Z,1025.64
2017-09-27T01:52:49.457Z,1025.64
2017-09-27T01:53:58.288Z,1025.64
2017-09-27T01:55:07.172Z,1025.65
2017-09-27T01:56:16.006Z,1025.63
2017-09-27T01:57:24.838Z,1025.65
2017-09-27T01:58:33.670Z,1025.63
2017-09-27T01:59:42.507Z,1025.62
2017-09-27T02:00:51.825Z,1025.65
2017-09-27T02:02:00.663Z,1025.66
2017-09-27T02:03:09.499Z,1025.66
2017-09-27T02:04:18.991Z,1025.68
2017-09-27T02:05:27.831Z,1025.66
2017-09-27T02:06:36.814Z,1025.65
2017-09-27T02:07:45.647Z,1025.6
2017-09-27T02:08:54.812Z,1025.64
2017-09-27T02:10:03.642Z,1025.63
2017-09-27T02:11:12.476Z,1025.68
2017-09-27T02:12:21.355Z,1025.67
2017-09-27T02:13:30.189Z,1025.68
2017-09-27T02:14:39.355Z,1025.67
2017-09-27T02:15:48.186Z,1025.67
2017-09-27T02:16:57.018Z,1025.66
2017-09-27T02:18:05.900Z,1025.69
2017-09-27T02:19:14.733Z,1025.64
2017-09-27T02:20:23.568Z,1025.65
2017-09-27T02:21:32.400Z,1025.62
2017-09-27T02:22:41.235Z,1025.66
2017-09-27T02:23:50.218Z,1025.66
2017-09-27T02:24:59.051Z,1025.67
2017-09-27T02:26:07.885Z,1025.64
2017-09-27T02:27:16.719Z,1025.66
2017-09-27T02:28:25.553Z,1025.64
2017-09-27T02:29:34.688Z,1025.61
2017-09-27T02:30:43.531Z,1025.64
2017-09-27T02:31:52.359Z,1025.64
2017-09-27T02:33:01.192Z,1025.63
2017-09-27T02:34:10.026Z,1025.7
2017-09-27T02:35:18.910Z,1025.67
2017-09-27T02:36:27.745Z,1025.62
2017-09-27T02:37:36.579Z,1025.6
2017-09-27T02:38:45.414Z,1025.62
2017-09-27T02:39:54.248Z,1025.58
2017-09-27T02:41:03.329Z,1025.65
2017-09-27T02:42:12.168Z,1025.61
2017-09-27T02:43:21.001Z,1025.61
2017-09-27T02:44:29.834Z,1025.62
2017-09-27T02:45:38.699Z,1025.64
2017-09-27T02:46:47.652Z,1025.59
2017-09-27T02:47:56.487Z,1025.56
2017-09-27T02:49:05.321Z,1025.59
2017-09-27T02:50:14.155Z,1025.53
2017-09-27T02:51:22.986Z,1025.54
2017-09-27T02:52:31.973Z,1025.56
2017-09-27T02:53:40.806Z,1025.57
2017-09-27T02:54:49.975Z,1025.55
2017-09-27T02:55:58.812Z,1025.56
2017-09-27T02:57:07.644Z,1025.54
2017-09-27T02:58:16.577Z,1025.55
2017-09-27T02:59:25.410Z,1025.57
2017-09-27T03:00:34.243Z,1025.58
2017-09-27T03:01:43.078Z,1025.6
2017-09-27T03:02:51.911Z,1025.59
2017-09-27T03:04:00.795Z,1025.6
2017-09-27T03:05:09.630Z,1025.61
2017-09-27T03:06:18.466Z,1025.59
2017-09-27T03:07:27.878Z,1025.59
2017-09-27T03:08:36.712Z,1025.58
2017-09-27T03:09:45.596Z,1025.56
2017-09-27T03:10:54.429Z,1025.57
2017-09-27T03:12:03.260Z,1025.6
2017-09-27T03:13:12.093Z,1025.59
2017-09-27T03:14:21.254Z,1025.56
2017-09-27T03:15:30.089Z,1025.61
2017-09-27T03:16:38.919Z,1025.55
2017-09-27T03:17:47.751Z,1025.59
2017-09-27T03:18:56.582Z,1025.56
2017-09-27T03:20:05.422Z,1025.59
2017-09-27T03:21:14.398Z,1025.57
2017-09-27T03:22:23.230Z,1025.59
2017-09-27T03:23:32.062Z,1025.58
2017-09-27T03:24:41.227Z,1025.6
2017-09-27T03:25:50.059Z,1025.55
2017-09-27T03:26:59.042Z,1025.61
2017-09-27T03:28:07.880Z,1025.55
2017-09-27T03:29:16.711Z,1025.55
2017-09-27T03:30:25.545Z,1025.56
2017-09-27T03:31:34.379Z,1025.56
2017-09-27T03:32:43.417Z,1025.53
2017-09-27T03:33:52.577Z,1025.53
2017-09-27T03:35:01.410Z,1025.51
2017-09-27T03:36:10.246Z,1025.49
2017-09-27T03:37:19.077Z,1025.52
2017-09-27T03:38:27.961Z,1025.49
2017-09-27T03:39:36.794Z,1025.56
2017-09-27T03:40:45.629Z,1025.55
2017-09-27T03:41:54.461Z,1025.52
2017-09-27T03:43:03.295Z,1025.56
2017-09-27T03:44:12.280Z,1025.5
2017-09-27T03:45:21.113Z,1025.55
2017-09-27T03:46:29.948Z,1025.52
2017-09-27T03:47:38.783Z,1025.51
2017-09-27T03:48:47.615Z,1025.53
2017-09-27T03:49:56.550Z,1025.51
2017-09-27T03:51:05.388Z,1025.5
2017-09-27T03:52:14.253Z,1025.5
2017-09-27T03:53:23.053Z,1025.53
2017-09-27T03:54:31.887Z,1025.54
2017-09-27T03:55:40.769Z,1025.52
2017-09-27T03:56:49.604Z,1025.52
2017-09-27T03:57:58.435Z,1025.56
2017-09-27T03:59:07.268Z,1025.55
2017-09-27T04:00:16.101Z,1025.56
2017-09-27T04:01:25.085Z,1025.59
2017-09-27T04:02:33.917Z,1025.57
2017-09-27T04:03:42.753Z,1025.61
2017-09-27T04:04:51.589Z,1025.58
2017-09-27T04:06:00.422Z,1025.6
2017-09-27T04:07:09.255Z,1025.6
2017-09-27T04:08:18.090Z,1025.59
2017-09-27T04:09:26.922Z,1025.6
2017-09-27T04:10:35.754Z,1025.59
2017-09-27T04:11:44.588Z,1025.59
2017-09-27T04:12:53.571Z,1025.63
2017-09-27T04:14:02.738Z,1025.57
2017-09-27T04:15:11.569Z,1025.6
2017-09-27T04:16:20.402Z,1025.61
2017-09-27T04:17:29.237Z,1025.57
2017-09-27T04:18:38.217Z,1025.6
2017-09-27T04:19:47.049Z,1025.58
2017-09-27T04:20:55.884Z,1025.56
2017-09-27T04:22:04.718Z,1025.57
2017-09-27T04:23:13.552Z,1025.55
2017-09-27T04:24:22.434Z,1025.58
2017-09-27T04:25:31.269Z,1025.55
2017-09-27T04:26:40.102Z,1025.56
2017-09-27T04:27:48.935Z,1025.56
2017-09-27T04:28:58.101Z,1025.56
2017-09-27T04:30:07.083Z,1025.54
2017-09-27T04:31:15.916Z,1025.54
2017-09-27T04:32:24.798Z,1025.47
2017-09-27T04:33:33.631Z,1025.55
2017-09-27T04:34:42.464Z,1025.58
2017-09-27T04:35:51.350Z,1025.51
2017-09-27T04:37:00.179Z,1025.49
2017-09-27T04:38:09.015Z,1025.53
2017-09-27T04:39:17.846Z,1025.5
2017-09-27T04:40:26.680Z,1025.52
2017-09-27T04:41:35.563Z,1025.51
2017-09-27T04:42:44.399Z,1025.49
2017-09-27T04:43:53.562Z,1025.58
2017-09-27T04:45:02.394Z,1025.53
2017-09-27T04:46:11.563Z,1025.56
2017-09-27T04:47:20.779Z,1025.56
2017-09-27T04:48:29.612Z,1025.54
2017-09-27T04:49:38.445Z,1025.53
2017-09-27T04:50:47.278Z,1025.56
2017-09-27T04:51:56.111Z,1025.57
2017-09-27T04:53:05.094Z,1025.6
2017-09-27T04:54:14.254Z,1025.57
2017-09-27T04:55:23.417Z,1025.58
2017-09-27T04:56:32.252Z,1025.59
2017-09-27T04:57:41.418Z,1025.6
2017-09-27T04:58:50.309Z,1025.58
2017-09-27T04:59:59.247Z,1025.61
2017-09-27T05:01:08.151Z,1025.62
2017-09-27T05:02:17.094Z,1025.61
2017-09-27T05:03:25.991Z,1025.66
2017-09-27T05:04:35.327Z,1025.63
2017-09-27T05:05:44.222Z,1025.68
2017-09-27T05:06:53.289Z,1025.68
2017-09-27T05:08:02.275Z,1025.68
2017-09-27T05:09:11.214Z,1025.66
2017-09-27T05:10:20.128Z,1025.71
2017-09-27T05:11:29.023Z,1025.69
2017-09-27T05:12:38.002Z,1025.7
2017-09-27T05:13:47.319Z,1025.68
2017-09-27T05:14:56.710Z,1025.7
2017-09-27T05:16:06.224Z,1025.7
2017-09-27T05:17:15.932Z,1025.73
2017-09-27T05:18:24.767Z,1025.72
2017-09-27T05:19:33.599Z,1025.7
2017-09-27T05:20:42.440Z,1025.69
2017-09-27T05:21:51.326Z,1025.66
2017-09-27T05:23:00.163Z,1025.68
2017-09-27T05:24:09.103Z,1025.67
2017-09-27T05:25:17.937Z,1025.66
2017-09-27T05:26:26.772Z,1025.67
2017-09-27T05:27:35.955Z,1025.66
2017-09-27T05:28:44.792Z,1025.73
2017-09-27T05:29:53.628Z,1025.69
2017-09-27T05:31:02.461Z,1025.73
2017-09-27T05:32:11.293Z,1025.7
2017-09-27T05:33:20.128Z,1025.73
2017-09-27T05:34:28.963Z,1025.73
2017-09-27T05:35:37.798Z,1025.74
2017-09-27T05:36:46.969Z,1025.74
2017-09-27T05:37:55.802Z,1025.72
2017-09-27T05:39:04.634Z,1025.73
2017-09-27T05:40:13.466Z,1025.7
2017-09-27T05:41:22.636Z,1025.69
2017-09-27T05:42:31.471Z,1025.68
2017-09-27T05:43:40.307Z,1025.7
2017-09-27T05:44:49.141Z,1025.72
2017-09-27T05:45:57.973Z,1025.74
2017-09-27T05:47:06.808Z,1025.74
2017-09-27T05:48:15.641Z,1025.78
2017-09-27T05:49:24.476Z,1025.77
2017-09-27T05:50:33.309Z,1025.8
2017-09-27T05:51:42.477Z,1025.75
2017-09-27T05:52:51.411Z,1025.79
2017-09-27T05:54:00.247Z,1025.8
2017-09-27T05:55:09.083Z,1025.77
2017-09-27T05:56:17.919Z,1025.8
2017-09-27T05:57:26.752Z,1025.74
2017-09-27T05:58:35.585Z,1025.77
2017-09-27T05:59:44.422Z,1025.77
2017-09-27T06:00:53.594Z,1025.78
2017-09-27T06:02:02.425Z,1025.81
2017-09-27T06:03:11.259Z,1025.88
2017-09-27T06:04:20.293Z,1025.84
2017-09-27T06:05:29.128Z,1025.84
2017-09-27T06:06:37.963Z,1025.85
2017-09-27T06:07:46.799Z,1025.87
2017-09-27T06:08:55.965Z,1025.83
2017-09-27T06:10:04.903Z,1025.88
2017-09-27T06:11:13.737Z,1025.9
2017-09-27T06:12:22.574Z,1025.87
2017-09-27T06:13:31.408Z,1025.9
2017-09-27T06:14:40.242Z,1025.87
2017-09-27T06:15:49.608Z,1025.88
2017-09-27T06:16:58.442Z,1025.91
2017-09-27T06:18:07.279Z,1025.91
2017-09-27T06:19:16.118Z,1025.87
2017-09-27T06:20:24.971Z,1025.91
2017-09-27T06:21:33.908Z,1025.9
2017-09-27T06:22:42.745Z,1025.91
2017-09-27T06:23:51.580Z,1025.93
2017-09-27T06:25:00.754Z,1025.98
2017-09-27T06:26:09.639Z,1025.96
2017-09-27T06:27:18.500Z,1025.96
2017-09-27T06:28:27.334Z,1026.03
2017-09-27T06:29:36.166Z,1025.98
2017-09-27T06:30:45.004Z,1026.03
2017-09-27T06:31:53.837Z,1026.01
2017-09-27T06:33:02.769Z,1026.01
2017-09-27T06:34:11.936Z,1025.99
2017-09-27T06:35:20.769Z,1026
2017-09-27T06:36:29.604Z,1025.99
2017-09-27T06:37:38.439Z,1025.97
2017-09-27T06:38:47.326Z,1025.95
2017-09-27T06:39:56.493Z,1026
2017-09-27T06:41:05.328Z,1026.01
2017-09-27T06:42:14.162Z,1026
2017-09-27T06:43:22.995Z,1026.06
2017-09-27T06:45:03.939Z,1026.09
2017-09-27T06:46:12.774Z,1026.07
2017-09-27T06:47:21.608Z,1026.07
2017-09-27T06:48:30.445Z,1026.1
2017-09-27T06:49:39.330Z,1026.12
2017-09-27T06:50:48.167Z,1026.11
2017-09-27T06:51:57.000Z,1026.1
2017-09-27T06:53:05.842Z,1026.1
2017-09-27T06:54:14.677Z,1026.11
2017-09-27T06:55:23.613Z,1026.12
2017-09-27T06:56:32.446Z,1026.14
2017-09-27T06:57:41.282Z,1026.14
2017-09-27T06:58:50.119Z,1026.12
2017-09-27T06:59:58.954Z,1026.16
2017-09-27T07:01:07.938Z,1026.18
2017-09-27T07:02:16.770Z,1026.16
2017-09-27T07:03:25.605Z,1026.19
2017-09-27T07:04:34.439Z,1026.2
2017-09-27T07:05:43.275Z,1026.19
2017-09-27T07:06:52.543Z,1026.24
2017-09-27T07:08:01.378Z,1026.26
2017-09-27T07:09:10.215Z,1026.23
2017-09-27T07:10:19.048Z,1026.26
2017-09-27T07:11:27.883Z,1026.29
2017-09-27T07:12:36.717Z,1026.31
2017-09-27T07:13:45.553Z,1026.29
2017-09-27T07:14:54.389Z,1026.33
2017-09-27T07:16:03.225Z,1026.28
2017-09-27T07:17:12.062Z,1026.28
2017-09-27T07:18:20.995Z,1026.3
2017-09-27T07:19:30.162Z,1026.33
2017-09-27T07:20:38.999Z,1026.32
2017-09-27T07:21:47.837Z,1026.33
2017-09-27T07:22:56.674Z,1026.33
2017-09-27T07:24:05.614Z,1026.34
2017-09-27T07:25:14.442Z,1026.32
2017-09-27T07:26:23.277Z,1026.39
2017-09-27T07:27:32.111Z,1026.37
2017-09-27T07:28:40.947Z,1026.42
2017-09-27T07:29:49.835Z,1026.4
2017-09-27T07:30:58.670Z,1026.4
2017-09-27T07:32:07.506Z,1026.41
2017-09-27T07:33:16.342Z,1026.41
2017-09-27T07:34:25.177Z,1026.46
2017-09-27T07:35:34.062Z,1026.4
2017-09-27T07:36:42.897Z,1026.42
2017-09-27T07:37:51.730Z,1026.4
2017-09-27T07:39:00.571Z,1026.42
2017-09-27T07:40:09.406Z,1026.45
2017-09-27T07:41:18.440Z,1026.44
2017-09-27T07:42:27.276Z,1026.43
2017-09-27T07:43:36.112Z,1026.41
2017-09-27T07:44:44.944Z,1026.44
2017-09-27T07:45:53.778Z,1026.45
2017-09-27T07:47:03.093Z,1026.45
2017-09-27T07:48:11.931Z,1026.48
2017-09-27T07:49:20.767Z,1026.46
2017-09-27T07:50:29.603Z,1026.44
2017-09-27T07:51:38.438Z,1026.46
2017-09-27T07:52:47.273Z,1026.5
2017-09-27T07:53:56.106Z,1026.48
2017-09-27T07:55:04.943Z,1026.47
2017-09-27T07:56:13.779Z,1026.46
2017-09-27T07:57:22.616Z,1026.44
2017-09-27T07:58:31.600Z,1026.43
2017-09-27T07:59:40.435Z,1026.41
2017-09-27T08:00:49.273Z,1026.46
2017-09-27T08:01:58.106Z,1026.47
2017-09-27T08:03:06.949Z,1026.48
2017-09-27T08:04:16.419Z,1026.44
2017-09-27T08:05:25.255Z,1026.47
2017-09-27T08:06:34.093Z,1026.48
2017-09-27T08:07:43.261Z,1026.45
2017-09-27T08:08:52.096Z,1026.45
2017-09-27T08:10:01.434Z,1026.47
2017-09-27T08:11:10.603Z,1026.48
2017-09-27T08:12:19.442Z,1026.46
2017-09-27T08:13:28.277Z,1026.49
2017-09-27T08:14:37.113Z,1026.47
2017-09-27T08:15:45.997Z,1026.5
2017-09-27T08:16:55.498Z,1026.52
2017-09-27T08:18:04.335Z,1026.51
2017-09-27T08:19:13.168Z,1026.51
2017-09-27T08:20:22.006Z,1026.5
2017-09-27T08:21:31.139Z,1026.53
2017-09-27T08:22:39.975Z,1026.53
2017-09-27T08:23:48.813Z,1026.53
2017-09-27T08:24:57.652Z,1026.54
2017-09-27T08:26:06.485Z,1026.5
2017-09-27T08:27:15.570Z,1026.52
2017-09-27T08:28:24.408Z,1026.53
2017-09-27T08:29:33.244Z,1026.58
2017-09-27T08:30:42.411Z,1026.54
2017-09-27T08:31:51.248Z,1026.53
2017-09-27T08:33:00.232Z,1026.56
2017-09-27T08:34:09.073Z,1026.58
2017-09-27T08:35:18.244Z,1026.57
2017-09-27T08:36:27.080Z,1026.57
2017-09-27T08:37:35.921Z,1026.58
2017-09-27T08:38:45.059Z,1026.62
2017-09-27T08:39:53.895Z,1026.63
2017-09-27T08:41:02.731Z,1026.63
2017-09-27T08:42:11.568Z,1026.62
2017-09-27T08:43:20.400Z,1026.6
2017-09-27T08:44:29.285Z,1026.58
2017-09-27T08:45:38.119Z,1026.6
2017-09-27T08:46:46.954Z,1026.57
2017-09-27T08:47:55.788Z,1026.57
2017-09-27T08:49:04.626Z,1026.59
2017-09-27T08:50:13.711Z,1026.59
2017-09-27T08:51:22.545Z,1026.6
2017-09-27T08:52:31.384Z,1026.63
2017-09-27T08:53:40.554Z,1026.65
2017-09-27T08:54:49.392Z,1026.63
2017-09-27T08:55:58.329Z,1026.62
2017-09-27T08:57:07.163Z,1026.63
2017-09-27T08:58:16.009Z,1026.59
2017-09-27T08:59:24.843Z,1026.64
2017-09-27T09:00:33.679Z,1026.62
2017-09-27T09:01:42.614Z,1026.65
2017-09-27T09:02:51.448Z,1026.66
2017-09-27T09:04:00.282Z,1026.66
2017-09-27T09:05:09.115Z,1026.65
2017-09-27T09:06:17.949Z,1026.64
2017-09-27T09:07:26.833Z,1026.64
2017-09-27T09:08:35.666Z,1026.65
2017-09-27T09:09:44.505Z,1026.67
2017-09-27T09:10:53.351Z,1026.63
2017-09-27T09:12:02.178Z,1026.65
2017-09-27T09:13:11.064Z,1026.64
2017-09-27T09:14:19.905Z,1026.61
2017-09-27T09:15:29.404Z,1026.61
2017-09-27T09:16:38.239Z,1026.63
2017-09-27T09:17:47.407Z,1026.57
2017-09-27T09:18:56.342Z,1026.62
2017-09-27T09:20:05.178Z,1026.6
2017-09-27T09:21:14.013Z,1026.56
2017-09-27T09:22:22.850Z,1026.62
2017-09-27T09:23:31.690Z,1026.57
2017-09-27T09:24:40.630Z,1026.56
2017-09-27T09:25:49.796Z,1026.55
2017-09-27T09:26:58.633Z,1026.57
2017-09-27T09:28:07.468Z,1026.59
2017-09-27T09:29:16.303Z,1026.59
2017-09-27T09:30:25.240Z,1026.53
2017-09-27T09:31:34.076Z,1026.6
2017-09-27T09:32:42.912Z,1026.6
2017-09-27T09:33:51.750Z,1026.62
2017-09-27T09:35:00.585Z,1026.53
2017-09-27T09:36:09.621Z,1026.57
2017-09-27T09:37:18.457Z,1026.55
2017-09-27T09:38:27.294Z,1026.56
2017-09-27T09:39:36.132Z,1026.59
2017-09-27T09:40:44.968Z,1026.57
2017-09-27T09:41:54.011Z,1026.59
2017-09-27T09:43:02.844Z,1026.55
2017-09-27T09:44:11.681Z,1026.58
2017-09-27T09:45:20.513Z,1026.6
2017-09-27T09:46:29.349Z,1026.56
2017-09-27T09:47:38.285Z,1026.59
2017-09-27T09:48:47.118Z,1026.59
2017-09-27T09:49:55.961Z,1026.54
2017-09-27T09:51:04.791Z,1026.57
2017-09-27T09:52:13.961Z,1026.52
2017-09-27T09:53:22.947Z,1026.51
2017-09-27T09:54:31.784Z,1026.52
2017-09-27T09:55:40.624Z,1026.57
2017-09-27T09:56:49.789Z,1026.54
2017-09-27T09:57:58.626Z,1026.55
2017-09-27T09:59:07.661Z,1026.51
2017-09-27T10:00:16.499Z,1026.52
2017-09-27T10:01:25.339Z,1026.53
2017-09-27T10:02:34.177Z,1026.52
2017-09-27T10:03:43.349Z,1026.49
2017-09-27T10:04:52.719Z,1026.5
2017-09-27T10:06:01.554Z,1026.52
2017-09-27T10:07:10.389Z,1026.47
2017-09-27T10:08:19.227Z,1026.47
2017-09-27T10:09:28.393Z,1026.46
2017-09-27T10:10:37.668Z,1026.46
2017-09-27T10:11:46.867Z,1026.46
2017-09-27T10:12:56.033Z,1026.44
2017-09-27T10:14:04.869Z,1026.37
2017-09-27T10:15:13.704Z,1026.37
2017-09-27T10:16:22.539Z,1026.36
2017-09-27T10:17:31.376Z,1026.39
2017-09-27T10:18:40.213Z,1026.38
2017-09-27T10:19:49.047Z,1026.37
2017-09-27T10:20:57.885Z,1026.36
2017-09-27T10:22:06.969Z,1026.4
2017-09-27T10:23:15.806Z,1026.4
2017-09-27T10:24:24.647Z,1026.4
2017-09-27T10:25:33.483Z,1026.39
2017-09-27T10:26:42.320Z,1026.38
2017-09-27T10:27:51.209Z,1026.39
2017-09-27T10:29:00.042Z,1026.45
2017-09-27T10:30:08.878Z,1026.46
2017-09-27T10:31:17.712Z,1026.45
2017-09-27T10:32:26.547Z,1026.43
2017-09-27T10:33:35.534Z,1026.48
2017-09-27T10:34:44.372Z,1026.47
2017-09-27T10:35:53.207Z,1026.46
2017-09-27T10:37:02.043Z,1026.4
2017-09-27T10:38:10.878Z,1026.44
2017-09-27T10:39:20.017Z,1026.46
2017-09-27T10:40:28.850Z,1026.41
2017-09-27T10:41:38.024Z,1026.48
2017-09-27T10:42:46.859Z,1026.47
2017-09-27T10:43:55.694Z,1026.5
2017-09-27T10:45:04.631Z,1026.51
2017-09-27T10:46:13.466Z,1026.49
2017-09-27T10:47:22.303Z,1026.48
2017-09-27T10:48:31.141Z,1026.45
2017-09-27T10:49:40.302Z,1026.45
2017-09-27T10:50:49.194Z,1026.47
2017-09-27T10:51:58.026Z,1026.43
2017-09-27T10:53:06.863Z,1026.44
2017-09-27T10:54:15.701Z,1026.46
2017-09-27T10:55:24.537Z,1026.45
2017-09-27T10:56:33.621Z,1026.44
2017-09-27T10:57:42.458Z,1026.36
2017-09-27T10:58:51.294Z,1026.37
2017-09-27T11:00:00.130Z,1026.41
2017-09-27T11:01:08.976Z,1026.43
2017-09-27T11:02:18.490Z,1026.42
2017-09-27T11:03:28.713Z,1026.42
2017-09-27T11:04:38.209Z,1026.41
2017-09-27T11:05:47.043Z,1026.39
2017-09-27T11:06:56.573Z,1026.38
2017-09-27T11:08:06.681Z,1026.32
2017-09-27T11:09:16.229Z,1026.37
2017-09-27T11:10:25.806Z,1026.38
2017-09-27T11:11:34.971Z,1026.37
2017-09-27T11:12:44.519Z,1026.39
2017-09-27T11:13:54.641Z,1026.36
2017-09-27T11:15:03.475Z,1026.38
2017-09-27T11:16:12.317Z,1026.38
2017-09-27T11:17:21.484Z,1026.38
2017-09-27T11:18:30.321Z,1026.36
2017-09-27T11:19:39.255Z,1026.35
2017-09-27T11:20:48.093Z,1026.34
2017-09-27T11:21:57.254Z,1026.37
2017-09-27T11:23:06.093Z,1026.39
2017-09-27T11:24:14.927Z,1026.31
2017-09-27T11:25:23.810Z,1026.33
2017-09-27T11:26:32.643Z,1026.37
2017-09-27T11:27:41.480Z,1026.36
2017-09-27T11:28:50.318Z,1026.31
2017-09-27T11:29:59.166Z,1026.29
2017-09-27T11:31:08.297Z,1026.28
2017-09-27T11:32:17.135Z,1026.3
2017-09-27T11:33:25.976Z,1026.33
2017-09-27T11:34:34.813Z,1026.27
2017-09-27T11:35:43.651Z,1026.29
2017-09-27T11:36:52.536Z,1026.29
2017-09-27T11:38:01.374Z,1026.28
2017-09-27T11:39:10.211Z,1026.28
2017-09-27T11:40:19.378Z,1026.25
2017-09-27T11:41:28.217Z,1026.24
2017-09-27T11:42:37.106Z,1026.21
2017-09-27T11:43:45.942Z,1026.2
2017-09-27T11:44:55.114Z,1026.22
2017-09-27T11:46:03.952Z,1026.2
2017-09-27T11:47:12.787Z,1026.16
2017-09-27T11:48:21.973Z,1026.2
2017-09-27T11:49:30.807Z,1026.24
2017-09-27T11:50:39.642Z,1026.17
2017-09-27T11:51:48.479Z,1026.12
2017-09-27T11:52:57.651Z,1026.15
2017-09-27T11:54:06.586Z,1026.17
2017-09-27T11:55:15.423Z,1026.13
2017-09-27T11:56:24.259Z,1026.14
2017-09-27T11:57:33.098Z,1026.07
2017-09-27T11:58:41.936Z,1026.1
2017-09-27T11:59:50.878Z,1026.1
2017-09-27T12:00:59.721Z,1026.11
2017-09-27T12:02:08.555Z,1026.14
2017-09-27T12:03:17.389Z,1026.09
2017-09-27T12:04:26.229Z,1026.07
2017-09-27T12:05:35.166Z,1026.06
2017-09-27T12:06:44.007Z,1026.07
2017-09-27T12:07:52.842Z,1026.03
2017-09-27T12:09:01.680Z,1026.01
2017-09-27T12:10:10.854Z,1025.99
2017-09-27T12:11:19.941Z,1025.92
2017-09-27T12:12:28.778Z,1026
2017-09-27T12:13:37.617Z,1025.93
2017-09-27T12:14:46.453Z,1026.01
2017-09-27T12:15:55.287Z,1026.01
2017-09-27T12:17:04.174Z,1025.99
2017-09-27T12:18:13.017Z,1025.94
2017-09-27T12:19:22.181Z,1025.92
2017-09-27T12:20:31.044Z,1025.87
2017-09-27T12:21:39.882Z,1025.81
2017-09-27T12:22:48.818Z,1025.84
2017-09-27T12:23:57.653Z,1025.8
2017-09-27T12:25:06.489Z,1025.8
2017-09-27T12:26:15.327Z,1025.8
2017-09-27T12:27:24.164Z,1025.81
2017-09-27T12:28:33.148Z,1025.85
2017-09-27T12:29:41.982Z,1025.82
2017-09-27T12:30:50.818Z,1025.83
2017-09-27T12:31:59.664Z,1025.82
2017-09-27T12:33:08.597Z,1025.84
2017-09-27T12:34:18.069Z,1025.81
2017-09-27T12:35:26.906Z,1025.83
2017-09-27T12:36:35.739Z,1025.81
2017-09-27T12:37:44.575Z,1025.81
2017-09-27T12:38:53.411Z,1025.75
2017-09-27T12:40:02.402Z,1025.75
2017-09-27T12:41:11.236Z,1025.74
2017-09-27T12:42:20.070Z,1025.72
2017-09-27T12:43:29.264Z,1025.75
2017-09-27T12:44:38.185Z,1025.72
2017-09-27T12:45:47.123Z,1025.73
2017-09-27T12:46:55.959Z,1025.72
2017-09-27T12:48:04.799Z,1025.73
2017-09-27T12:49:13.637Z,1025.68
2017-09-27T12:50:22.477Z,1025.68
2017-09-27T12:51:31.414Z,1025.65
2017-09-27T12:52:40.320Z,1025.63
2017-09-27T12:53:49.167Z,1025.63
2017-09-27T12:54:58.017Z,1025.58
2017-09-27T12:56:06.855Z,1025.6
2017-09-27T12:57:15.802Z,1025.58
2017-09-27T12:58:24.979Z,1025.57
2017-09-27T12:59:33.817Z,1025.58
2017-09-27T13:00:42.945Z,1025.54
2017-09-27T13:01:51.816Z,1025.56
2017-09-27T13:03:01.270Z,1025.61
2017-09-27T13:04:10.109Z,1025.58
2017-09-27T13:05:18.957Z,1025.59
2017-09-27T13:06:27.794Z,1025.63
2017-09-27T13:07:36.730Z,1025.61
2017-09-27T13:08:45.769Z,1025.6
2017-09-27T13:09:54.605Z,1025.65
2017-09-27T13:11:03.439Z,1025.6
2017-09-27T13:12:12.274Z,1025.62
2017-09-27T13:13:21.111Z,1025.64
2017-09-27T13:14:29.999Z,1025.67
2017-09-27T13:15:38.838Z,1025.62
2017-09-27T13:16:48.013Z,1025.62
2017-09-27T13:17:56.854Z,1025.6
2017-09-27T13:19:05.693Z,1025.6
2017-09-27T13:20:14.680Z,1025.63
2017-09-27T13:21:23.517Z,1025.58
2017-09-27T13:22:32.353Z,1025.54
2017-09-27T13:23:41.188Z,1025.54
2017-09-27T13:24:50.025Z,1025.51
2017-09-27T13:25:58.966Z,1025.51
2017-09-27T13:27:07.802Z,1025.47
2017-09-27T13:28:16.638Z,1025.49
2017-09-27T13:29:25.475Z,1025.45
2017-09-27T13:30:34.316Z,1025.46
2017-09-27T13:31:43.253Z,1025.46
2017-09-27T13:32:52.106Z,1025.48
2017-09-27T13:34:00.941Z,1025.54
2017-09-27T13:35:09.776Z,1025.55
2017-09-27T13:36:18.614Z,1025.5
2017-09-27T13:37:27.601Z,1025.52
2017-09-27T13:38:36.443Z,1025.5
2017-09-27T13:39:45.282Z,1025.52
2017-09-27T13:40:54.116Z,1025.51
2017-09-27T13:42:02.954Z,1025.51
2017-09-27T13:43:12.174Z,1025.51
2017-09-27T13:44:21.011Z,1025.58
2017-09-27T13:45:29.853Z,1025.53
2017-09-27T13:46:38.687Z,1025.56
2017-09-27T13:47:47.529Z,1025.51
2017-09-27T13:48:56.744Z,1025.51
2017-09-27T13:50:05.585Z,1025.49
2017-09-27T13:51:14.423Z,1025.51
2017-09-27T13:52:23.261Z,1025.45
2017-09-27T13:53:32.098Z,1025.48
2017-09-27T13:54:41.135Z,1025.48
2017-09-27T13:55:49.973Z,1025.49
2017-09-27T13:56:58.809Z,1025.47